Time;durP1;ratioP1;P1;durP2;ratioP2;P2;SDS_P1;SDS_P2;PMS_P1;PMS_P2;Temp;Humidity;BMP_temperature;BMP_pressure;BME280_temperature;BME280_humidity;BME280_pressure;Samples;Min_cycle;Max_cycle;Signal;HPM_P1;HPM_P2
2020/12/09 00:00:05;;;;;;;2.83;2.30;;;21.50;40.90;;;;;;5031097;28;20096;-47
2020/12/09 00:02:31;;;;;;;3.08;2.75;;;21.40;40.90;;;;;;5038604;28;20049;-49
2020/12/09 00:04:56;;;;;;;2.70;2.35;;;21.40;40.90;;;;;;5033571;28;20105;-49
2020/12/09 00:07:22;;;;;;;2.40;2.20;;;21.40;40.90;;;;;;5032794;28;20032;-48
2020/12/09 00:09:47;;;;;;;2.65;2.22;;;21.40;40.90;;;;;;5036450;28;20033;-47
2020/12/09 00:12:15;;;;;;;2.60;2.40;;;21.30;41.00;;;;;;5012551;28;20033;-50
2020/12/09 00:14:41;;;;;;;2.10;1.75;;;21.30;40.90;;;;;;5038500;28;20083;-51
2020/12/09 00:17:07;;;;;;;2.13;1.73;;;21.30;41.00;;;;;;5030447;28;20332;-49
2020/12/09 00:19:33;;;;;;;2.08;1.55;;;21.30;40.90;;;;;;5031025;28;20034;-48
2020/12/09 00:21:58;;;;;;;1.88;1.75;;;21.30;40.90;;;;;;5030570;28;20415;-47
2020/12/09 00:24:24;;;;;;;2.58;2.30;;;21.30;40.90;;;;;;5029438;28;20025;-49
2020/12/09 00:26:49;;;;;;;2.63;2.40;;;21.30;41.00;;;;;;5045075;28;20115;-49
2020/12/09 00:29:15;;;;;;;2.30;1.88;;;21.30;41.00;;;;;;5040580;28;20033;-50
2020/12/09 00:31:40;;;;;;;2.60;1.98;;;21.20;40.90;;;;;;5022244;28;20556;-48
2020/12/09 00:34:06;;;;;;;2.63;1.95;;;21.20;41.00;;;;;;5030238;28;20076;-50
2020/12/09 00:36:32;;;;;;;2.67;1.85;;;21.20;40.90;;;;;;5016310;28;20547;-49
2020/12/09 00:38:58;;;;;;;3.05;1.83;;;21.20;40.90;;;;;;5037914;28;20108;-49
2020/12/09 00:41:28;;;;;;;3.25;2.17;;;21.20;41.00;;;;;;5040062;28;20088;-50
2020/12/09 00:43:54;;;;;;;2.63;2.22;;;21.20;41.00;;;;;;5046490;28;20033;-49
2020/12/09 00:46:22;;;;;;;1.90;1.80;;;21.10;40.90;;;;;;5037884;28;20025;-49
2020/12/09 00:48:48;;;;;;;2.58;2.38;;;21.20;41.00;;;;;;5029960;28;20025;-49
2020/12/09 00:51:15;;;;;;;2.88;2.30;;;21.10;41.00;;;;;;5056836;22;20067;-46
2020/12/09 00:53:41;;;;;;;1.80;1.27;;;21.10;40.90;;;;;;5036124;28;20028;-48
2020/12/09 00:56:10;;;;;;;2.33;2.10;;;21.10;40.90;;;;;;5049734;28;20389;-46
2020/12/09 00:58:36;;;;;;;1.80;1.60;;;21.10;40.90;;;;;;5049827;28;20036;-50
2020/12/09 01:01:03;;;;;;;2.05;1.92;;;21.10;40.90;;;;;;5031613;28;20470;-45
2020/12/09 01:03:30;;;;;;;3.08;2.25;;;21.10;40.90;;;;;;5051584;28;20033;-45
2020/12/09 01:05:55;;;;;;;1.92;1.63;;;21.00;40.90;;;;;;5043398;28;20033;-45
2020/12/09 01:08:21;;;;;;;2.50;2.30;;;21.00;40.80;;;;;;5050734;28;20448;-47
2020/12/09 01:10:47;;;;;;;1.90;1.70;;;21.00;40.90;;;;;;5046461;28;20040;-48
2020/12/09 01:13:14;;;;;;;2.13;1.90;;;21.00;40.90;;;;;;5050681;28;20037;-45
2020/12/09 01:15:40;;;;;;;3.30;1.95;;;21.00;40.80;;;;;;5045489;28;20044;-46
2020/12/09 01:18:05;;;;;;;1.88;1.50;;;21.00;40.90;;;;;;5050823;28;20142;-46
2020/12/09 01:20:31;;;;;;;1.75;1.63;;;21.00;40.90;;;;;;5048604;28;20029;-45
2020/12/09 01:22:56;;;;;;;3.78;1.88;;;20.90;40.80;;;;;;5049293;28;20054;-46
2020/12/09 01:25:22;;;;;;;1.90;1.73;;;20.90;40.90;;;;;;5049999;28;20024;-49
2020/12/09 01:27:47;;;;;;;2.17;1.88;;;20.90;40.90;;;;;;5049804;28;20040;-48
2020/12/09 01:30:13;;;;;;;3.00;1.30;;;20.90;40.90;;;;;;5046982;28;20025;-46
2020/12/09 01:32:39;;;;;;;1.80;1.30;;;20.90;41.00;;;;;;5047621;28;20017;-45
2020/12/09 01:35:05;;;;;;;2.30;1.63;;;20.90;41.00;;;;;;5045543;28;20035;-46
2020/12/09 01:37:30;;;;;;;2.50;1.52;;;20.90;40.90;;;;;;5047210;28;20049;-49
2020/12/09 01:39:56;;;;;;;1.55;1.40;;;20.80;40.90;;;;;;5049484;28;20124;-49
2020/12/09 01:42:22;;;;;;;1.92;1.55;;;20.80;40.80;;;;;;5031606;28;20039;-46
2020/12/09 01:44:47;;;;;;;2.25;1.60;;;20.80;40.80;;;;;;5051589;28;20041;-48
2020/12/09 01:47:13;;;;;;;2.05;1.63;;;20.80;40.80;;;;;;5048198;28;20086;-47
2020/12/09 01:49:39;;;;;;;2.45;1.30;;;20.80;40.80;;;;;;5058981;28;20047;-48
2020/12/09 01:52:05;;;;;;;1.73;1.63;;;20.80;40.90;;;;;;5049283;28;20052;-44
2020/12/09 01:54:32;;;;;;;2.22;1.85;;;20.80;40.90;;;;;;5050567;28;20035;-46
2020/12/09 01:57:09;;;;;;;1.83;1.65;;;20.70;40.80;;;;;;5044167;28;20037;-48
2020/12/09 01:59:36;;;;;;;2.70;1.73;;;20.70;40.90;;;;;;5046961;28;20984;-43
2020/12/09 02:02:01;;;;;;;2.92;1.98;;;20.70;40.80;;;;;;5047427;28;20040;-45
2020/12/09 02:04:28;;;;;;;1.48;1.38;;;20.70;41.20;;;;;;5049534;28;20429;-45
2020/12/09 02:06:54;;;;;;;3.00;1.80;;;20.70;40.80;;;;;;5047952;28;20409;-43
2020/12/09 02:09:20;;;;;;;3.42;1.90;;;20.70;40.90;;;;;;5047965;28;20032;-47
2020/12/09 02:11:47;;;;;;;1.70;1.60;;;20.70;40.80;;;;;;5041958;28;20025;-49
2020/12/09 02:14:13;;;;;;;2.40;1.95;;;20.70;41.00;;;;;;5048880;28;20025;-47
2020/12/09 02:16:38;;;;;;;1.90;1.58;;;20.70;40.90;;;;;;5046790;28;20378;-48
2020/12/09 02:19:04;;;;;;;2.42;1.52;;;20.70;41.10;;;;;;5050894;28;20021;-44
2020/12/09 02:21:34;;;;;;;2.65;1.60;;;20.70;40.90;;;;;;5031744;28;20033;-47
2020/12/09 02:24:00;;;;;;;4.32;1.75;;;20.60;40.80;;;;;;5046445;28;20115;-44
2020/12/09 02:26:27;;;;;;;1.98;1.30;;;20.60;40.90;;;;;;5047302;28;20562;-44
2020/12/09 02:28:53;;;;;;;2.28;2.05;;;20.60;40.90;;;;;;5049205;28;20047;-45
2020/12/09 02:31:18;;;;;;;2.75;1.90;;;20.60;40.80;;;;;;5033851;28;20036;-47
2020/12/09 02:33:44;;;;;;;2.85;2.05;;;20.60;40.80;;;;;;5045144;28;20029;-47
2020/12/09 02:36:09;;;;;;;2.63;1.73;;;20.60;40.90;;;;;;5046153;28;20058;-44
2020/12/09 02:38:35;;;;;;;2.20;1.60;;;20.50;40.90;;;;;;5047439;28;20037;-45
2020/12/09 02:41:00;;;;;;;2.10;1.65;;;20.60;40.70;;;;;;5048332;28;20382;-46
2020/12/09 02:43:26;;;;;;;2.25;1.60;;;20.50;40.80;;;;;;5045912;28;20025;-45
2020/12/09 02:45:51;;;;;;;2.92;2.15;;;20.50;40.80;;;;;;5045995;28;20829;-45
2020/12/09 02:48:17;;;;;;;2.05;1.95;;;20.50;40.60;;;;;;5044221;28;20033;-47
2020/12/09 02:50:42;;;;;;;3.38;1.65;;;20.50;40.70;;;;;;5054531;28;20025;-44
2020/12/09 02:53:08;;;;;;;1.73;1.60;;;20.50;40.90;;;;;;5047675;28;20032;-44
2020/12/09 02:55:33;;;;;;;2.58;2.00;;;20.50;40.70;;;;;;5020133;28;20033;-47
2020/12/09 02:58:00;;;;;;;2.05;1.67;;;20.50;40.80;;;;;;5029531;28;20025;-48
2020/12/09 03:00:26;;;;;;;4.47;2.17;;;20.50;40.70;;;;;;5045919;28;20033;-45
2020/12/09 03:02:51;;;;;;;2.30;2.05;;;20.50;40.70;;;;;;5045774;28;20401;-47
2020/12/09 03:05:17;;;;;;;2.10;1.88;;;20.50;40.80;;;;;;5045020;28;20041;-47
2020/12/09 03:07:43;;;;;;;4.18;2.10;;;20.50;40.70;;;;;;5044231;28;20037;-44
2020/12/09 03:10:08;;;;;;;2.53;1.77;;;20.40;40.80;;;;;;5047773;28;20031;-45
2020/12/09 03:12:34;;;;;;;1.83;1.67;;;20.40;40.80;;;;;;5047852;28;20033;-49
2020/12/09 03:15:00;;;;;;;2.63;2.03;;;20.40;40.90;;;;;;5048672;28;20021;-43
2020/12/09 03:17:25;;;;;;;3.20;2.15;;;20.40;40.80;;;;;;5047583;28;20032;-46
2020/12/09 03:19:51;;;;;;;2.53;1.42;;;20.40;40.90;;;;;;5047146;28;20029;-46
2020/12/09 03:22:16;;;;;;;2.10;1.90;;;20.40;40.90;;;;;;5049059;28;20063;-46
2020/12/09 03:24:42;;;;;;;2.33;1.80;;;20.40;40.90;;;;;;5044909;28;20073;-44
2020/12/09 03:27:08;;;;;;;1.90;1.70;;;20.40;40.80;;;;;;5045690;28;20029;-46
2020/12/09 03:29:33;;;;;;;3.28;1.95;;;20.40;40.50;;;;;;5043551;28;20032;-47
2020/12/09 03:31:59;;;;;;;2.78;1.80;;;20.40;40.50;;;;;;5045402;28;20033;-44
2020/12/09 03:34:24;;;;;;;2.33;1.85;;;20.40;40.60;;;;;;5028779;28;20017;-43
2020/12/09 03:36:50;;;;;;;1.77;1.65;;;20.40;40.60;;;;;;5046288;28;20057;-46
2020/12/09 03:39:15;;;;;;;2.33;2.05;;;20.30;40.50;;;;;;5046842;28;20013;-46
2020/12/09 03:41:41;;;;;;;3.00;2.42;;;20.30;40.70;;;;;;5038909;28;20498;-47
2020/12/09 03:44:06;;;;;;;2.10;1.70;;;20.30;40.60;;;;;;5040909;28;20124;-44
2020/12/09 03:46:32;;;;;;;2.40;2.20;;;20.30;40.70;;;;;;5047278;28;22120;-46
2020/12/09 03:48:58;;;;;;;1.50;1.40;;;20.30;40.70;;;;;;5049027;28;20450;-46
2020/12/09 03:51:23;;;;;;;2.63;1.77;;;20.30;40.70;;;;;;5046225;28;20112;-44
2020/12/09 03:53:49;;;;;;;1.70;1.60;;;20.30;40.60;;;;;;5042540;28;20040;-46
2020/12/09 03:56:14;;;;;;;2.42;2.08;;;20.30;40.70;;;;;;5048589;28;20056;-44
2020/12/09 03:58:40;;;;;;;2.30;2.10;;;20.30;40.70;;;;;;5047751;28;20486;-44
2020/12/09 04:01:06;;;;;;;2.33;2.00;;;20.30;40.60;;;;;;5046958;28;20734;-45
2020/12/09 04:03:32;;;;;;;4.13;2.22;;;20.30;40.60;;;;;;5044915;28;20032;-43
2020/12/09 04:05:57;;;;;;;1.67;1.58;;;20.20;40.60;;;;;;5048125;28;20055;-46
2020/12/09 04:08:23;;;;;;;3.55;1.65;;;20.30;40.70;;;;;;5045102;28;20094;-45
2020/12/09 04:10:49;;;;;;;2.30;2.03;;;20.30;40.70;;;;;;5044439;28;20017;-44
2020/12/09 04:13:15;;;;;;;2.13;1.85;;;20.30;40.60;;;;;;5046575;28;20021;-45
2020/12/09 04:15:40;;;;;;;3.92;1.88;;;20.30;40.50;;;;;;5032576;28;20112;-46
2020/12/09 04:18:06;;;;;;;2.33;2.13;;;20.20;40.60;;;;;;5042628;28;20028;-49
2020/12/09 04:20:33;;;;;;;1.73;1.63;;;20.20;40.50;;;;;;5042062;28;20036;-44
2020/12/09 04:22:58;;;;;;;1.63;1.52;;;20.20;40.40;;;;;;5045906;28;20108;-46
2020/12/09 04:25:24;;;;;;;2.00;1.80;;;20.20;40.30;;;;;;5047888;28;20649;-42
2020/12/09 04:27:49;;;;;;;2.60;1.65;;;20.20;40.60;;;;;;5045161;28;20025;-46
2020/12/09 04:30:15;;;;;;;1.55;1.45;;;20.20;40.40;;;;;;5047279;28;20060;-49
2020/12/09 04:32:40;;;;;;;2.30;2.10;;;20.20;40.50;;;;;;5043477;28;20056;-44
2020/12/09 04:35:07;;;;;;;2.15;1.80;;;20.20;40.40;;;;;;5044237;28;20033;-46
2020/12/09 04:37:32;;;;;;;1.90;1.65;;;20.10;40.50;;;;;;5039193;28;20385;-45
2020/12/09 04:39:58;;;;;;;2.17;1.63;;;20.20;40.50;;;;;;5037220;28;20029;-45
2020/12/09 04:42:25;;;;;;;1.73;1.63;;;20.10;40.60;;;;;;5039599;28;20048;-45
2020/12/09 04:44:52;;;;;;;1.70;1.60;;;20.10;40.50;;;;;;5043559;28;20029;-48
2020/12/09 04:47:24;;;;;;;1.73;1.63;;;20.10;40.50;;;;;;5045165;28;20033;-47
2020/12/09 04:50:06;;;;;;;2.20;1.75;;;20.10;40.60;;;;;;5052300;28;20045;-47
2020/12/09 04:53:03;;;;;;;3.80;1.67;;;20.10;40.60;;;;;;5047107;28;20761;-44
2020/12/09 04:55:32;;;;;;;1.73;1.55;;;20.10;40.60;;;;;;5040632;28;20021;-46
2020/12/09 04:58:13;;;;;;;1.98;1.40;;;20.10;40.40;;;;;;5045789;28;20052;-45
2020/12/09 05:00:43;;;;;;;2.05;1.85;;;20.10;40.40;;;;;;5028018;28;20196;-45
2020/12/09 05:03:13;;;;;;;1.50;1.40;;;20.10;40.40;;;;;;5048141;28;20037;-45
2020/12/09 05:05:39;;;;;;;2.70;1.90;;;20.10;40.40;;;;;;5040960;28;20030;-50
2020/12/09 05:08:11;;;;;;;2.85;1.80;;;20.10;40.40;;;;;;5038584;28;20025;-45
2020/12/09 05:10:45;;;;;;;2.03;1.60;;;20.10;40.50;;;;;;5046229;28;20032;-46
2020/12/09 05:13:18;;;;;;;2.15;1.95;;;20.10;40.50;;;;;;5040814;28;20025;-44
2020/12/09 05:15:44;;;;;;;2.28;1.83;;;20.00;40.40;;;;;;5034155;28;20393;-48
2020/12/09 05:18:10;;;;;;;2.13;1.90;;;20.10;40.50;;;;;;5030022;28;20029;-46
2020/12/09 05:20:38;;;;;;;1.95;1.80;;;20.00;40.50;;;;;;5041883;28;20033;-47
2020/12/09 05:23:06;;;;;;;2.33;2.10;;;20.00;40.40;;;;;;5046555;28;20021;-45
2020/12/09 05:25:33;;;;;;;2.53;2.00;;;20.00;40.50;;;;;;5046939;28;20036;-44
2020/12/09 05:27:59;;;;;;;2.08;1.90;;;20.00;40.30;;;;;;5047751;28;20092;-47
2020/12/09 05:30:43;;;;;;;1.95;1.65;;;20.00;40.40;;;;;;5045877;28;20036;-46
2020/12/09 05:33:11;;;;;;;1.63;1.52;;;20.00;40.30;;;;;;5046654;28;20400;-45
2020/12/09 05:35:39;;;;;;;2.28;1.92;;;20.00;40.40;;;;;;5049334;28;20025;-48
2020/12/09 05:38:23;;;;;;;2.72;2.03;;;20.00;40.40;;;;;;5032063;28;20025;-46
2020/12/09 05:40:49;;;;;;;1.67;1.58;;;19.90;40.40;;;;;;5039779;28;20090;-45
2020/12/09 05:43:16;;;;;;;2.70;1.77;;;19.90;40.60;;;;;;5049696;28;20033;-44
2020/12/09 05:45:43;;;;;;;2.90;1.73;;;19.90;40.50;;;;;;5046991;28;20090;-46
2020/12/09 05:48:22;;;;;;;4.03;2.05;;;19.90;40.60;;;;;;5047896;28;20025;-44
2020/12/09 05:50:59;;;;;;;1.88;1.77;;;19.80;40.40;;;;;;5053688;28;20052;-49
2020/12/09 05:53:25;;;;;;;2.40;2.20;;;19.90;40.10;;;;;;5050259;28;20038;-46
2020/12/09 05:55:54;;;;;;;2.13;1.85;;;19.90;40.20;;;;;;5050024;28;20030;-45
2020/12/09 05:58:24;;;;;;;3.15;2.13;;;19.80;40.30;;;;;;5045177;28;20029;-48
2020/12/09 06:01:10;;;;;;;1.92;1.67;;;19.90;40.30;;;;;;5046279;28;20745;-47
2020/12/09 06:03:38;;;;;;;2.65;2.25;;;19.90;40.30;;;;;;5048262;28;20730;-46
2020/12/09 06:06:29;;;;;;;2.50;1.83;;;19.90;40.30;;;;;;5047416;28;20033;-45
2020/12/09 06:08:55;;;;;;;1.92;1.42;;;19.90;40.30;;;;;;5042323;28;20028;-47
2020/12/09 06:11:31;;;;;;;2.17;1.42;;;19.80;40.30;;;;;;5042449;28;20091;-46
2020/12/09 06:13:57;;;;;;;2.22;2.03;;;19.90;40.40;;;;;;5046065;28;20025;-46
2020/12/09 06:16:24;;;;;;;1.80;1.70;;;19.90;40.50;;;;;;5030581;28;20033;-44
2020/12/09 06:18:51;;;;;;;2.05;1.75;;;19.90;40.30;;;;;;5048375;28;20082;-47
2020/12/09 06:21:17;;;;;;;1.98;1.83;;;19.80;40.50;;;;;;5046469;28;20060;-46
2020/12/09 06:23:43;;;;;;;2.67;1.77;;;19.80;40.50;;;;;;5046157;28;20084;-46
2020/12/09 06:26:09;;;;;;;2.58;1.92;;;19.80;40.90;;;;;;5050749;28;20032;-46
2020/12/09 06:28:38;;;;;;;2.28;1.88;;;19.80;41.00;;;;;;5047399;28;20055;-45
2020/12/09 06:31:18;;;;;;;1.50;1.02;;;19.80;40.80;;;;;;5041204;28;20041;-46
2020/12/09 06:33:53;;;;;;;2.00;1.33;;;20.00;40.60;;;;;;5041754;28;20031;-45
2020/12/09 06:36:23;;;;;;;1.83;1.20;;;20.20;40.40;;;;;;5047885;28;20029;-46
2020/12/09 06:39:18;;;;;;;1.60;1.17;;;20.30;40.00;;;;;;5042620;28;20060;-49
2020/12/09 06:41:46;;;;;;;1.00;0.90;;;20.50;39.90;;;;;;5030078;28;20047;-44
2020/12/09 06:44:14;;;;;;;1.45;0.90;;;20.50;39.70;;;;;;5042221;28;20061;-45
2020/12/09 06:46:47;;;;;;;1.98;1.17;;;20.70;39.60;;;;;;5048225;28;20112;-43
2020/12/09 06:49:28;;;;;;;1.55;1.13;;;20.70;39.50;;;;;;5051445;28;20104;-46
2020/12/09 06:51:55;;;;;;;1.05;0.95;;;20.80;39.50;;;;;;5043378;28;20094;-46
2020/12/09 06:54:21;;;;;;;1.63;1.23;;;20.80;39.40;;;;;;5045985;28;20486;-44
2020/12/09 06:57:13;;;;;;;1.40;0.88;;;20.80;39.40;;;;;;5048553;28;20079;-49
2020/12/09 06:59:39;;;;;;;1.70;1.02;;;20.90;39.40;;;;;;5042693;28;20045;-45
2020/12/09 07:02:06;;;;;;;1.48;1.15;;;20.90;39.40;;;;;;5043628;28;20033;-48
2020/12/09 07:04:53;;;;;;;1.25;0.85;;;20.90;39.40;;;;;;5046646;28;20033;-46
2020/12/09 07:07:29;;;;;;;1.85;1.27;;;20.90;39.40;;;;;;5041191;28;20025;-46
2020/12/09 07:09:55;;;;;;;1.05;0.90;;;20.90;39.50;;;;;;5047408;28;20041;-48
2020/12/09 07:12:21;;;;;;;1.30;0.88;;;20.90;39.40;;;;;;5044341;28;20047;-45
2020/12/09 07:14:55;;;;;;;1.42;0.80;;;21.00;39.50;;;;;;5044739;28;20037;-45
2020/12/09 07:17:22;;;;;;;0.93;0.82;;;21.10;39.50;;;;;;5047469;28;20126;-46
2020/12/09 07:19:49;;;;;;;1.42;1.05;;;21.10;39.40;;;;;;5049447;28;20031;-45
2020/12/09 07:22:14;;;;;;;1.40;1.30;;;21.10;39.40;;;;;;5045421;28;20041;-47
2020/12/09 07:24:40;;;;;;;2.42;1.55;;;21.10;39.30;;;;;;5047639;28;20596;-46
2020/12/09 07:27:09;;;;;;;2.03;1.50;;;21.10;39.30;;;;;;5046063;28;20035;-45
2020/12/09 07:29:36;;;;;;;2.70;2.15;;;21.10;39.30;;;;;;5043972;28;20036;-46
2020/12/09 07:32:02;;;;;;;3.17;1.77;;;21.00;39.40;;;;;;5042927;28;20052;-47
2020/12/09 07:34:28;;;;;;;3.03;1.92;;;21.00;39.40;;;;;;5044484;28;20135;-48
2020/12/09 07:36:55;;;;;;;2.55;1.95;;;21.00;39.40;;;;;;5047799;28;20126;-47
2020/12/09 07:39:34;;;;;;;2.35;1.77;;;20.90;39.40;;;;;;5042180;28;20108;-46
2020/12/09 07:42:01;;;;;;;2.53;2.03;;;20.90;39.60;;;;;;5048189;28;20559;-46
2020/12/09 07:44:28;;;;;;;4.45;1.83;;;20.90;39.60;;;;;;5043136;28;20025;-48
2020/12/09 07:46:58;;;;;;;2.90;1.92;;;20.90;39.70;;;;;;5045482;28;20027;-43
2020/12/09 07:49:24;;;;;;;2.70;2.40;;;20.80;39.70;;;;;;5040660;28;20398;-45
2020/12/09 07:51:52;;;;;;;2.25;1.80;;;20.80;39.70;;;;;;5039528;28;20029;-47
2020/12/09 07:54:21;;;;;;;1.58;1.42;;;20.70;39.70;;;;;;5042958;28;20025;-48
2020/12/09 07:56:47;;;;;;;2.90;2.25;;;20.70;39.90;;;;;;5045723;28;20033;-48
2020/12/09 07:59:14;;;;;;;2.00;1.60;;;20.70;40.00;;;;;;5043899;28;20033;-48
2020/12/09 08:01:40;;;;;;;3.38;1.70;;;20.70;40.00;;;;;;5046387;28;20116;-47
2020/12/09 08:04:06;;;;;;;2.22;1.58;;;20.70;40.10;;;;;;5042375;28;20120;-50
2020/12/09 08:06:34;;;;;;;3.55;1.77;;;20.70;40.60;;;;;;5044378;28;20040;-50
2020/12/09 08:09:15;;;;;;;2.72;1.52;;;20.80;40.20;;;;;;5027224;28;20033;-51
2020/12/09 08:11:43;;;;;;;4.35;1.67;;;20.70;40.10;;;;;;5024004;28;20028;-47
2020/12/09 08:14:13;;;;;;;2.80;1.75;;;20.80;40.20;;;;;;5026262;28;20089;-47
2020/12/09 08:16:39;;;;;;;2.80;2.13;;;20.80;40.30;;;;;;5045304;28;20025;-48
2020/12/09 08:19:09;;;;;;;2.83;2.63;;;20.80;40.40;;;;;;5046211;28;20040;-47
2020/12/09 08:21:35;;;;;;;2.08;1.65;;;20.90;40.30;;;;;;5028044;28;20108;-48
2020/12/09 08:24:11;;;;;;;2.85;2.30;;;20.80;40.50;;;;;;5047347;28;20037;-49
2020/12/09 08:26:37;;;;;;;4.22;2.40;;;20.80;40.60;;;;;;5043572;28;20037;-47
2020/12/09 08:29:06;;;;;;;4.75;3.22;;;20.90;40.60;;;;;;5048100;28;20063;-46
2020/12/09 08:31:32;;;;;;;5.53;2.55;;;20.80;40.70;;;;;;5046464;28;20037;-49
2020/12/09 08:33:58;;;;;;;3.28;2.38;;;20.80;40.60;;;;;;5046048;28;20455;-46
2020/12/09 08:36:24;;;;;;;2.63;2.22;;;20.80;40.80;;;;;;5040467;28;20053;-45
2020/12/09 08:38:56;;;;;;;2.42;2.22;;;20.90;40.60;;;;;;5045078;28;20030;-45
2020/12/09 08:41:28;;;;;;;2.70;2.50;;;20.90;40.50;;;;;;5042858;28;20025;-47
2020/12/09 08:43:55;;;;;;;;;;;21.10;40.20;;;;;;5028066;28;20033;-46
2020/12/09 08:46:21;;;;;;;2.22;1.98;;;21.30;40.00;;;;;;5047376;28;19909;-44
2020/12/09 08:48:47;;;;;;;3.22;2.92;;;21.40;39.90;;;;;;5048436;28;20040;-45
2020/12/09 08:51:12;;;;;;;3.45;3.15;;;21.50;39.90;;;;;;5046373;28;20144;-49
2020/12/09 08:53:38;;;;;;;2.72;2.42;;;21.50;39.90;;;;;;5046861;28;20033;-44
2020/12/09 08:56:04;;;;;;;6.15;3.45;;;21.50;39.90;;;;;;5046062;28;20036;-43
2020/12/09 08:58:29;;;;;;;4.57;3.72;;;21.50;39.90;;;;;;5046886;28;20112;-47
2020/12/09 09:00:55;;;;;;;5.47;4.00;;;21.50;39.80;;;;;;5054644;28;20497;-48
2020/12/09 09:03:24;;;;;;;3.90;3.60;;;21.50;39.90;;;;;;5050621;28;20039;-45
2020/12/09 09:05:55;;;;;;;5.72;4.22;;;21.60;39.90;;;;;;5046347;28;20105;-43
2020/12/09 09:08:22;;;;;;;4.70;4.20;;;21.70;40.00;;;;;;5048228;28;20029;-48
2020/12/09 09:10:48;;;;;;;4.20;3.80;;;21.70;39.90;;;;;;5044918;28;20029;-48
2020/12/09 09:13:13;;;;;;;4.88;4.40;;;21.80;40.10;;;;;;5044458;28;20030;-46
2020/12/09 09:15:39;;;;;;;4.50;4.00;;;21.80;40.10;;;;;;5039428;28;20036;-44
2020/12/09 09:18:06;;;;;;;5.95;4.75;;;21.80;40.10;;;;;;5039759;28;20044;-48
2020/12/09 09:20:33;;;;;;;4.85;4.45;;;21.80;40.20;;;;;;5044332;28;20044;-44
2020/12/09 09:22:59;;;;;;;6.80;4.85;;;21.80;40.20;;;;;;5050054;28;20032;-47
2020/12/09 09:25:25;;;;;;;5.43;4.90;;;21.80;40.10;;;;;;5041451;28;20022;-39
2020/12/09 09:27:51;;;;;;;7.13;4.85;;;21.80;40.20;;;;;;5038543;28;20693;-45
2020/12/09 09:30:19;;;;;;;5.82;4.82;;;21.70;40.20;;;;;;5043129;28;20525;-45
2020/12/09 09:32:44;;;;;;;5.50;4.97;;;21.80;40.50;;;;;;5047088;28;20037;-43
2020/12/09 09:35:10;;;;;;;6.22;5.20;;;21.80;40.40;;;;;;5048405;28;20032;-41
2020/12/09 09:37:35;;;;;;;4.93;4.50;;;21.90;40.30;;;;;;5059508;28;20512;-41
2020/12/09 09:40:01;;;;;;;5.85;5.10;;;21.90;40.20;;;;;;5047784;28;20043;-45
2020/12/09 09:42:27;;;;;;;6.63;5.80;;;22.00;40.10;;;;;;5047317;28;20037;-43
2020/12/09 09:44:52;;;;;;;5.90;5.25;;;22.10;40.20;;;;;;5057879;28;20029;-51
2020/12/09 09:47:18;;;;;;;6.72;5.75;;;22.10;39.90;;;;;;5072582;28;20051;-51
2020/12/09 09:49:44;;;;;;;6.63;5.57;;;22.00;40.20;;;;;;5071239;28;20044;-52
2020/12/09 09:52:10;;;;;;;6.20;5.40;;;22.10;40.30;;;;;;5072571;28;20048;-49
2020/12/09 09:54:35;;;;;;;6.43;5.80;;;22.10;40.30;;;;;;5064586;28;20501;-48
2020/12/09 09:57:01;;;;;;;6.35;5.50;;;22.10;40.20;;;;;;5049671;28;20105;-44
2020/12/09 09:59:27;;;;;;;5.80;5.30;;;22.10;40.30;;;;;;5050739;28;20033;-48
2020/12/09 10:01:53;;;;;;;10.13;5.78;;;22.10;40.90;;;;;;5053182;28;20032;-46
2020/12/09 10:04:20;;;;;;;7.55;5.60;;;22.10;40.50;;;;;;5050866;28;20082;-47
2020/12/09 10:06:46;;;;;;;6.13;5.53;;;22.10;40.70;;;;;;5046430;28;20040;-47
2020/12/09 10:09:11;;;;;;;7.55;5.97;;;22.00;41.00;;;;;;5042004;28;20389;-47
2020/12/09 10:11:38;;;;;;;7.65;6.00;;;21.90;40.80;;;;;;5048484;28;20040;-44
2020/12/09 10:14:07;;;;;;;9.40;6.45;;;22.00;40.90;;;;;;5043403;28;20037;-47
2020/12/09 10:16:33;;;;;;;11.25;7.05;;;22.00;40.60;;;;;;5049834;28;20037;-45
2020/12/09 10:18:59;;;;;;;8.73;6.05;;;21.90;40.60;;;;;;5048729;28;20440;-47
2020/12/09 10:21:32;;;;;;;8.25;5.68;;;21.90;40.70;;;;;;5050773;28;20078;-42
2020/12/09 10:23:59;;;;;;;6.78;5.78;;;21.80;40.80;;;;;;5047670;28;20129;-48
2020/12/09 10:26:32;;;;;;;6.90;6.00;;;21.80;40.90;;;;;;5049391;28;20028;-45
2020/12/09 10:29:02;;;;;;;7.85;6.63;;;21.80;40.90;;;;;;5046582;28;20107;-44
2020/12/09 10:31:36;;;;;;;7.65;5.95;;;21.90;40.90;;;;;;5049596;28;20420;-44
2020/12/09 10:34:03;;;;;;;7.10;6.07;;;21.90;41.20;;;;;;5048419;28;20043;-43
2020/12/09 10:36:29;;;;;;;8.18;6.40;;;21.80;41.00;;;;;;5046699;28;20103;-48
2020/12/09 10:38:55;;;;;;;7.30;6.60;;;21.80;41.10;;;;;;5043623;28;20465;-48
2020/12/09 10:41:20;;;;;;;11.13;6.85;;;21.80;41.20;;;;;;5049551;28;20029;-45
2020/12/09 10:43:49;;;;;;;7.75;6.63;;;21.70;41.60;;;;;;5049832;28;20108;-45
2020/12/09 10:46:14;;;;;;;7.40;6.63;;;21.70;41.50;;;;;;5043438;28;20052;-42
2020/12/09 10:48:40;;;;;;;6.95;6.28;;;21.70;41.40;;;;;;5050689;28;20505;-43
2020/12/09 10:51:06;;;;;;;6.75;6.05;;;21.70;41.60;;;;;;5053100;28;20489;-46
2020/12/09 10:53:31;;;;;;;8.15;6.88;;;21.70;41.40;;;;;;5049505;28;20178;-42
2020/12/09 10:55:59;;;;;;;6.53;5.88;;;21.70;41.50;;;;;;5047937;28;20033;-50
2020/12/09 10:58:28;;;;;;;7.47;6.65;;;21.70;41.70;;;;;;5043312;28;20114;-44
2020/12/09 11:00:55;;;;;;;7.65;6.82;;;21.70;41.60;;;;;;5047098;28;20390;-48
2020/12/09 11:03:22;;;;;;;7.57;6.60;;;21.60;41.70;;;;;;5041931;28;20037;-45
2020/12/09 11:05:47;;;;;;;9.50;6.45;;;21.60;41.70;;;;;;5043375;28;20033;-45
2020/12/09 11:08:14;;;;;;;8.07;6.32;;;21.70;41.80;;;;;;5048926;28;20036;-47
2020/12/09 11:10:40;;;;;;;6.63;5.97;;;21.80;41.50;;;;;;5045633;28;20033;-47
2020/12/09 11:13:06;;;;;;;6.60;5.90;;;21.90;41.40;;;;;;5041494;28;20048;-47
2020/12/09 11:15:33;;;;;;;5.90;5.40;;;22.00;41.20;;;;;;5041757;28;20508;-48
2020/12/09 11:17:58;;;;;;;8.25;6.47;;;22.10;41.30;;;;;;5041105;28;20045;-47
2020/12/09 11:20:24;;;;;;;8.00;6.68;;;22.10;41.70;;;;;;5045086;28;20040;-42
2020/12/09 11:22:49;;;;;;;6.43;5.78;;;22.10;41.20;;;;;;5041664;28;20033;-47
2020/12/09 11:25:15;;;;;;;6.47;5.88;;;22.10;41.20;;;;;;5036358;28;20056;-49
2020/12/09 11:27:41;;;;;;;7.45;6.65;;;22.20;41.00;;;;;;5047161;28;20047;-45
2020/12/09 11:30:06;;;;;;;7.22;6.53;;;22.30;40.90;;;;;;5043433;28;20037;-44
2020/12/09 11:32:33;;;;;;;6.93;6.25;;;22.30;40.90;;;;;;5043608;28;20037;-45
2020/12/09 11:34:59;;;;;;;7.80;7.00;;;22.40;40.80;;;;;;5046616;28;20032;-46
2020/12/09 11:37:24;;;;;;;6.53;5.90;;;22.40;40.80;;;;;;5035450;28;20025;-45
2020/12/09 11:39:50;;;;;;;8.18;7.38;;;22.40;40.80;;;;;;5043228;28;20025;-48
2020/12/09 11:42:16;;;;;;;7.50;6.80;;;22.40;40.80;;;;;;5047398;28;20562;-44
2020/12/09 11:44:41;;;;;;;8.02;6.68;;;22.30;40.90;;;;;;5044698;28;20397;-48
2020/12/09 11:47:07;;;;;;;5.55;4.93;;;22.30;40.90;;;;;;5044662;28;20454;-47
2020/12/09 11:49:32;;;;;;;6.38;5.78;;;22.40;41.30;;;;;;5044957;28;20494;-46
2020/12/09 11:51:58;;;;;;;7.32;6.55;;;22.40;40.60;;;;;;5042928;28;20490;-44
2020/12/09 11:54:24;;;;;;;8.98;7.18;;;22.40;40.70;;;;;;5042423;28;20032;-47
2020/12/09 11:56:49;;;;;;;6.75;5.88;;;22.40;40.80;;;;;;5021806;28;20374;-46
2020/12/09 11:59:15;;;;;;;8.32;6.68;;;22.50;40.70;;;;;;5039152;28;20517;-43
2020/12/09 12:01:40;;;;;;;6.85;6.15;;;22.60;40.60;;;;;;5045061;28;20397;-48
2020/12/09 12:04:06;;;;;;;6.70;5.68;;;22.60;40.50;;;;;;5046013;28;20428;-48
2020/12/09 12:06:32;;;;;;;7.95;6.40;;;22.70;40.60;;;;;;5042530;28;21986;-46
2020/12/09 12:08:58;;;;;;;8.30;6.68;;;22.70;40.60;;;;;;5028472;28;20511;-43
2020/12/09 12:11:24;;;;;;;6.85;6.07;;;22.70;40.80;;;;;;5040715;28;20040;-42
2020/12/09 12:13:50;;;;;;;9.10;7.03;;;22.60;40.70;;;;;;5040635;28;20025;-43
2020/12/09 12:16:22;;;;;;;9.40;6.97;;;22.70;40.80;;;;;;5029045;28;20037;-45
2020/12/09 12:18:48;;;;;;;8.07;6.60;;;22.60;40.70;;;;;;5044542;28;20040;-42
2020/12/09 12:21:15;;;;;;;6.60;6.00;;;22.60;41.00;;;;;;5041652;28;20040;-42
2020/12/09 12:23:41;;;;;;;8.00;7.00;;;22.60;40.80;;;;;;5046930;28;20020;-43
2020/12/09 12:26:07;;;;;;;6.65;6.03;;;22.60;41.10;;;;;;5045574;28;20039;-42
2020/12/09 12:28:33;;;;;;;7.43;6.65;;;22.60;41.20;;;;;;5029367;28;20098;-42
2020/12/09 12:30:58;;;;;;;7.82;7.05;;;22.50;41.20;;;;;;5044686;28;20103;-48
2020/12/09 12:33:24;;;;;;;8.65;6.78;;;22.50;41.40;;;;;;5042848;28;20035;-42
2020/12/09 12:35:50;;;;;;;7.65;6.95;;;22.40;41.60;;;;;;5041784;28;20069;-40
2020/12/09 12:38:15;;;;;;;7.80;6.68;;;22.40;41.40;;;;;;5044409;28;20096;-40
2020/12/09 12:40:41;;;;;;;7.93;7.13;;;22.40;41.60;;;;;;5045115;28;20141;-42
2020/12/09 12:43:07;;;;;;;8.70;7.13;;;22.30;41.70;;;;;;5044945;28;20498;-40
2020/12/09 12:45:32;;;;;;;8.00;7.20;;;22.30;41.70;;;;;;5047148;28;20465;-46
2020/12/09 12:47:58;;;;;;;8.05;7.25;;;22.30;41.70;;;;;;5044349;28;20036;-43